createdAt,value
2023-11-29T00:02:26.153Z,83.0
2023-11-29T00:05:29.556Z,67.0
2023-11-29T00:08:26.538Z,46.0
2023-11-29T00:11:25.817Z,30.0
2023-11-29T00:14:27.431Z,20.0
2023-11-29T00:17:30.930Z,11.0
2023-11-29T00:20:26.519Z,11.0
2023-11-29T00:23:26.342Z,7.0
2023-11-29T00:26:25.638Z,6.0
2023-11-29T00:29:26.049Z,21.0
2023-11-29T00:32:25.948Z,24.0
2023-11-29T00:35:28.776Z,25.0
2023-11-29T00:38:25.592Z,23.0
2023-11-29T00:41:25.702Z,24.0
2023-11-29T00:44:33.481Z,11.0
2023-11-29T00:47:25.669Z,7.0
2023-11-29T00:50:25.971Z,9.0
2023-11-29T00:53:25.757Z,228.0
2023-11-29T00:56:30.804Z,93.0
2023-11-29T00:59:25.631Z,12.0
2023-11-29T01:02:26.255Z,0.0
2023-11-29T01:05:26.160Z,8.0
2023-11-29T01:08:25.662Z,1.0
2023-11-29T01:11:28.912Z,8.0
2023-11-29T01:14:25.644Z,14.0
2023-11-29T01:17:25.789Z,30.0
2023-11-29T01:20:26.504Z,47.0
2023-11-29T01:23:31.341Z,60.0
2023-11-29T01:26:25.662Z,78.0
2023-11-29T01:29:28.111Z,74.0
2023-11-29T01:32:25.817Z,67.0
2023-11-29T01:35:26.044Z,50.0
2023-11-29T01:38:25.707Z,55.0
2023-11-29T01:41:25.777Z,54.0
2023-11-29T01:44:26.699Z,42.0
2023-11-29T01:47:26.630Z,33.0
2023-11-29T01:50:26.897Z,24.0
2023-11-29T01:53:30.178Z,21.0
2023-11-29T01:56:25.672Z,17.0
2023-11-29T01:59:25.557Z,11.0
2023-11-29T02:02:25.785Z,12.0
2023-11-29T02:05:26.060Z,4.0
2023-11-29T02:08:25.621Z,8.0
2023-11-29T02:11:25.654Z,4.0
2023-11-29T02:14:25.471Z,11.0
2023-11-29T02:17:25.678Z,10.0
2023-11-29T02:20:27.824Z,18.0
2023-11-29T02:23:25.943Z,14.0
2023-11-29T02:26:25.956Z,14.0
2023-11-29T02:29:25.533Z,22.0
2023-11-29T02:32:26.263Z,16.0
2023-11-29T02:35:25.881Z,23.0
2023-11-29T02:38:25.646Z,18.0
2023-11-29T02:41:25.831Z,23.0
2023-11-29T02:44:25.572Z,21.0
2023-11-29T02:47:25.698Z,21.0
2023-11-29T02:50:26.377Z,22.0
2023-11-29T02:53:25.602Z,30.0
2023-11-29T02:56:25.837Z,29.0
2023-11-29T02:59:25.645Z,31.0
2023-11-29T03:02:26.215Z,43.0
2023-11-29T03:05:25.930Z,57.0
2023-11-29T03:08:25.665Z,69.0
2023-11-29T03:11:25.512Z,71.0
2023-11-29T03:14:25.773Z,81.0
2023-11-29T03:17:25.733Z,83.0
2023-11-29T03:20:25.950Z,79.0
2023-11-29T03:23:26.745Z,88.0
2023-11-29T03:26:25.701Z,84.0
2023-11-29T03:29:25.575Z,83.0
2023-11-29T03:32:25.893Z,82.0
2023-11-29T03:35:25.807Z,87.0
2023-11-29T03:38:25.643Z,87.0
2023-11-29T03:41:25.500Z,78.0
2023-11-29T03:44:25.533Z,75.0
2023-11-29T03:47:26.550Z,78.0
2023-11-29T03:50:26.473Z,88.0
2023-11-29T03:53:35.389Z,96.0
2023-11-29T03:56:25.700Z,97.0
2023-11-29T03:59:26.795Z,88.0
2023-11-29T04:02:29.909Z,84.0
2023-11-29T04:05:25.966Z,85.0
2023-11-29T04:08:25.613Z,83.0
2023-11-29T04:11:35.328Z,91.0
2023-11-29T04:14:25.510Z,83.0
2023-11-29T04:17:27.203Z,77.0
2023-11-29T04:20:25.881Z,81.0
2023-11-29T04:23:25.533Z,77.0
2023-11-29T04:26:25.359Z,68.0
2023-11-29T04:29:25.670Z,54.0
2023-11-29T04:32:26.320Z,45.0
2023-11-29T04:35:39.510Z,47.0
2023-11-29T04:38:27.813Z,45.0
2023-11-29T04:41:25.754Z,55.0
2023-11-29T04:44:26.954Z,57.0
2023-11-29T04:47:25.912Z,40.0
2023-11-29T04:50:25.906Z,50.0
2023-11-29T04:53:25.501Z,47.0
2023-11-29T04:56:25.547Z,46.0
2023-11-29T04:59:25.470Z,35.0
2023-11-29T05:02:26.141Z,37.0
2023-11-29T05:05:28.184Z,36.0
2023-11-29T05:08:25.603Z,25.0
2023-11-29T05:11:25.526Z,33.0
2023-11-29T05:14:26.063Z,32.0
2023-11-29T05:17:31.504Z,33.0
2023-11-29T05:20:28.646Z,27.0
2023-11-29T05:23:25.639Z,23.0
2023-11-29T05:26:25.884Z,134.0
2023-11-29T05:29:25.819Z,91.0
2023-11-29T05:32:26.202Z,36.0
2023-11-29T05:35:25.925Z,32.0
2023-11-29T05:38:25.757Z,26.0
2023-11-29T05:41:25.875Z,13.0
2023-11-29T05:44:25.582Z,12.0
2023-11-29T05:47:26.364Z,18.0
2023-11-29T05:50:26.078Z,8.0
2023-11-29T05:53:26.299Z,8.0
2023-11-29T05:56:25.716Z,3.0
2023-11-29T05:59:25.999Z,16.0
2023-11-29T06:02:33.065Z,11.0
2023-11-29T06:05:26.808Z,17.0
2023-11-29T06:08:25.808Z,8.0
2023-11-29T06:11:25.787Z,255.0
2023-11-29T06:14:25.681Z,84.0
2023-11-29T06:17:34.533Z,31.0
2023-11-29T06:20:28.800Z,24.0
2023-11-29T06:23:25.611Z,26.0
2023-11-29T06:26:25.973Z,25.0
2023-11-29T06:29:25.668Z,16.0
2023-11-29T06:32:26.356Z,11.0
2023-11-29T06:35:25.894Z,61.0
2023-11-29T06:38:35.265Z,53.0
2023-11-29T06:41:34.607Z,48.0
2023-11-29T06:44:26.022Z,40.0
2023-11-29T06:47:25.990Z,37.0
2023-11-29T06:50:25.869Z,67.0
2023-11-29T06:53:25.766Z,59.0
2023-11-29T06:56:25.753Z,63.0
2023-11-29T06:59:32.419Z,63.0
2023-11-29T07:02:27.186Z,78.0
2023-11-29T07:05:28.857Z,63.0
2023-11-29T07:08:26.034Z,63.0
2023-11-29T07:11:25.885Z,53.0
2023-11-29T07:14:26.287Z,55.0
2023-11-29T07:17:27.629Z,70.0
2023-11-29T07:20:30.478Z,71.0
2023-11-29T07:23:25.600Z,72.0
2023-11-29T07:26:29.734Z,181.0
2023-11-29T07:29:25.938Z,126.0
2023-11-29T07:32:26.386Z,106.0
2023-11-29T07:35:26.003Z,188.0
2023-11-29T07:38:26.831Z,251.0
2023-11-29T07:41:26.922Z,152.0
2023-11-29T07:44:25.641Z,119.0
2023-11-29T07:47:26.620Z,102.0
2023-11-29T07:50:26.456Z,87.0
2023-11-29T07:53:26.066Z,99.0
2023-11-29T07:56:26.264Z,99.0
2023-11-29T07:59:33.503Z,103.0
2023-11-29T08:02:26.766Z,108.0
2023-11-29T08:05:26.181Z,105.0
2023-11-29T08:08:25.928Z,76.0
2023-11-29T08:11:26.492Z,43.0
2023-11-29T08:14:25.862Z,32.0
2023-11-29T08:17:25.674Z,14.0
2023-11-29T08:20:25.996Z,0.0
2023-11-29T08:23:25.887Z,16.0
2023-11-29T08:26:26.397Z,28.0
2023-11-29T08:29:25.505Z,37.0
2023-11-29T08:32:25.848Z,45.0
2023-11-29T08:35:25.819Z,69.0
2023-11-29T08:38:25.574Z,62.0
2023-11-29T08:41:25.765Z,66.0
2023-11-29T08:44:35.976Z,86.0
2023-11-29T08:47:25.902Z,81.0
2023-11-29T08:50:27.778Z,111.0
2023-11-29T08:53:30.362Z,152.0
2023-11-29T08:56:25.788Z,96.0
2023-11-29T08:59:27.514Z,121.0
2023-11-29T09:02:26.953Z,115.0
2023-11-29T09:05:26.111Z,105.0
2023-11-29T09:08:25.651Z,71.0
2023-11-29T09:11:26.043Z,51.0
2023-11-29T09:14:25.697Z,54.0
2023-11-29T09:17:27.995Z,62.0
2023-11-29T09:20:25.869Z,85.0
2023-11-29T09:23:25.740Z,95.0
2023-11-29T09:26:27.250Z,115.0
2023-11-29T09:29:25.518Z,128.0
2023-11-29T09:32:25.921Z,138.0
2023-11-29T09:35:25.972Z,145.0
2023-11-29T09:38:25.596Z,187.0
2023-11-29T09:41:25.868Z,192.0
2023-11-29T09:44:25.625Z,196.0
2023-11-29T09:47:25.778Z,237.0
2023-11-29T09:50:27.136Z,538.0
2023-11-29T09:53:25.703Z,335.0
2023-11-29T09:56:25.994Z,197.0
2023-11-29T09:59:25.555Z,152.0
2023-11-29T10:02:26.020Z,120.0
2023-11-29T10:05:27.402Z,116.0
2023-11-29T10:08:27.630Z,115.0
2023-11-29T10:11:25.803Z,103.0
2023-11-29T10:14:25.749Z,86.0
2023-11-29T10:17:27.362Z,77.0
2023-11-29T10:20:26.334Z,66.0
2023-11-29T10:23:29.433Z,81.0
2023-11-29T10:26:25.984Z,75.0
2023-11-29T10:29:28.232Z,56.0
2023-11-29T10:32:26.378Z,138.0
2023-11-29T10:35:26.066Z,88.0
2023-11-29T10:38:27.660Z,70.0
2023-11-29T10:41:25.629Z,68.0
2023-11-29T10:44:26.781Z,56.0
2023-11-29T10:47:26.170Z,53.0
2023-11-29T10:50:26.313Z,44.0
2023-11-29T10:53:25.755Z,49.0
2023-11-29T10:56:35.544Z,55.0
2023-11-29T10:59:27.320Z,45.0
2023-11-29T11:02:27.107Z,35.0
2023-11-29T11:05:30.405Z,41.0
2023-11-29T11:08:25.735Z,26.0
2023-11-29T11:11:26.092Z,21.0
2023-11-29T11:14:25.720Z,28.0
2023-11-29T11:17:26.505Z,35.0
2023-11-29T11:20:25.740Z,40.0
2023-11-29T11:23:25.869Z,49.0
2023-11-29T11:26:25.747Z,60.0
2023-11-29T11:29:25.905Z,57.0
2023-11-29T11:32:26.206Z,48.0
2023-11-29T11:35:25.804Z,59.0
2023-11-29T11:38:25.589Z,64.0
2023-11-29T11:41:26.569Z,74.0
2023-11-29T11:44:26.809Z,62.0
2023-11-29T11:47:26.353Z,50.0
2023-11-29T11:50:27.424Z,47.0
2023-11-29T11:53:25.666Z,48.0
2023-11-29T11:56:27.009Z,43.0
2023-11-29T11:59:26.328Z,38.0
2023-11-29T12:02:27.118Z,46.0
2023-11-29T12:05:26.086Z,57.0
2023-11-29T12:08:25.611Z,52.0
2023-11-29T12:11:26.599Z,50.0
2023-11-29T12:14:26.123Z,49.0
2023-11-29T12:17:26.560Z,45.0
2023-11-29T12:20:26.812Z,54.0
2023-11-29T12:23:25.864Z,91.0
2023-11-29T12:26:36.420Z,76.0
2023-11-29T12:29:25.345Z,70.0
2023-11-29T12:32:25.554Z,61.0
2023-11-29T12:35:27.823Z,137.0
2023-11-29T12:38:25.377Z,87.0
2023-11-29T12:41:26.020Z,80.0
2023-11-29T12:44:25.357Z,71.0
2023-11-29T12:47:25.536Z,75.0
2023-11-29T12:50:26.271Z,84.0
2023-11-29T12:53:25.353Z,69.0
2023-11-29T12:56:34.159Z,37.0
2023-11-29T12:59:25.426Z,22.0
2023-11-29T13:02:26.135Z,16.0
2023-11-29T13:05:25.519Z,77.0
2023-11-29T13:08:25.304Z,50.0
2023-11-29T13:11:25.320Z,35.0
2023-11-29T13:14:25.429Z,59.0
2023-11-29T13:17:25.747Z,68.0
2023-11-29T13:20:25.858Z,61.0
2023-11-29T13:23:25.525Z,83.0
2023-11-29T13:26:26.042Z,144.0
2023-11-29T13:29:26.121Z,167.0
2023-11-29T13:32:25.582Z,154.0
2023-11-29T13:35:28.624Z,153.0
2023-11-29T13:38:25.477Z,104.0
2023-11-29T13:41:27.021Z,54.0
2023-11-29T13:44:27.272Z,33.0
2023-11-29T13:47:25.647Z,38.0
2023-11-29T13:50:26.446Z,136.0
2023-11-29T13:53:35.987Z,69.0
2023-11-29T13:56:25.234Z,50.0
2023-11-29T13:59:26.109Z,30.0
2023-11-29T14:02:33.093Z,26.0
2023-11-29T14:05:37.833Z,17.0
2023-11-29T14:08:25.781Z,32.0
2023-11-29T14:11:25.999Z,77.0
2023-11-29T14:14:25.635Z,122.0
2023-11-29T14:17:26.443Z,121.0
2023-11-29T14:20:25.986Z,106.0
2023-11-29T14:23:26.131Z,104.0
2023-11-29T14:26:25.977Z,97.0
2023-11-29T14:29:36.873Z,78.0
2023-11-29T14:32:25.932Z,89.0
2023-11-29T14:35:30.255Z,77.0
2023-11-29T14:38:26.023Z,87.0
2023-11-29T14:41:41.660Z,85.0
2023-11-29T14:44:25.850Z,69.0
2023-11-29T14:47:25.914Z,87.0
2023-11-29T14:50:35.297Z,92.0
2023-11-29T14:53:25.520Z,87.0
2023-11-29T14:56:26.915Z,103.0
2023-11-29T14:59:25.605Z,108.0
2023-11-29T15:02:26.256Z,86.0
2023-11-29T15:05:25.849Z,85.0
2023-11-29T15:08:25.716Z,91.0
2023-11-29T15:11:26.472Z,85.0
2023-11-29T15:14:30.782Z,88.0
2023-11-29T15:17:26.309Z,72.0
2023-11-29T15:20:26.141Z,71.0
2023-11-29T15:23:25.644Z,81.0
2023-11-29T15:26:35.389Z,113.0
2023-11-29T15:29:25.579Z,111.0
2023-11-29T15:32:26.491Z,76.0
2023-11-29T15:35:27.130Z,62.0
2023-11-29T15:38:26.262Z,65.0
2023-11-29T15:41:33.057Z,87.0
2023-11-29T15:44:25.793Z,90.0
2023-11-29T15:47:26.624Z,94.0
2023-11-29T15:50:26.803Z,117.0
2023-11-29T15:53:26.000Z,115.0
2023-11-29T15:56:26.881Z,117.0
2023-11-29T15:59:25.663Z,119.0
2023-11-29T16:02:26.971Z,151.0
2023-11-29T16:05:26.439Z,185.0
2023-11-29T16:08:25.986Z,222.0
2023-11-29T16:11:25.563Z,218.0
2023-11-29T16:14:25.849Z,217.0
2023-11-29T16:17:26.519Z,209.0
2023-11-29T16:20:26.175Z,223.0
2023-11-29T16:23:25.676Z,335.0
2023-11-29T16:26:25.639Z,398.0
2023-11-29T16:29:26.228Z,457.0
2023-11-29T16:32:26.697Z,373.0
2023-11-29T16:35:27.011Z,330.0
2023-11-29T16:38:25.547Z,328.0
2023-11-29T16:41:25.787Z,393.0
2023-11-29T16:44:25.644Z,886.0
2023-11-29T16:47:30.063Z,1184.0
2023-11-29T16:50:28.630Z,1221.0
2023-11-29T16:53:35.333Z,1633.0
2023-11-29T17:59:25.388Z,1171.0
2023-11-29T18:02:26.116Z,1244.0
2023-11-29T18:05:26.545Z,1031.0
2023-11-29T18:08:25.766Z,1001.0
2023-11-29T18:11:25.733Z,1000.0
2023-11-29T18:14:25.816Z,924.0
2023-11-29T18:17:26.330Z,836.0
2023-11-29T18:20:26.206Z,804.0
2023-11-29T18:23:25.648Z,874.0
2023-11-29T18:26:35.826Z,883.0
2023-11-29T18:29:25.715Z,840.0
2023-11-29T18:32:26.107Z,676.0
2023-11-29T18:35:29.517Z,518.0
2023-11-29T18:38:25.718Z,408.0
2023-11-29T18:41:25.772Z,449.0
2023-11-29T18:44:25.656Z,717.0
2023-11-29T18:47:26.539Z,730.0
2023-11-29T18:50:26.467Z,615.0
2023-11-29T18:53:27.227Z,547.0
2023-11-29T18:56:25.700Z,633.0
2023-11-29T18:59:29.798Z,716.0
2023-11-29T19:02:26.534Z,557.0
2023-11-29T19:05:26.817Z,435.0
2023-11-29T19:08:25.740Z,436.0
2023-11-29T19:11:25.749Z,448.0
2023-11-29T19:14:25.680Z,403.0
2023-11-29T19:17:26.048Z,591.0
2023-11-29T19:20:26.088Z,534.0
2023-11-29T19:23:40.912Z,480.0
2023-11-29T19:26:25.690Z,415.0
2023-11-29T19:29:25.594Z,355.0
2023-11-29T19:32:25.829Z,397.0
2023-11-29T19:35:36.560Z,435.0
2023-11-29T19:38:25.636Z,483.0
2023-11-29T19:41:25.674Z,813.0
2023-11-29T19:44:25.728Z,742.0
2023-11-29T19:47:38.473Z,516.0
2023-11-29T19:50:26.166Z,557.0
2023-11-29T19:53:36.360Z,567.0
2023-11-29T19:56:25.739Z,505.0
2023-11-29T19:59:34.924Z,451.0
2023-11-29T20:02:26.324Z,403.0
2023-11-29T20:05:26.690Z,370.0
2023-11-29T20:08:33.327Z,502.0
2023-11-29T20:11:27.971Z,475.0
2023-11-29T20:14:39.429Z,402.0
2023-11-29T20:17:25.851Z,380.0
2023-11-29T20:20:45.928Z,451.0
2023-11-29T20:23:28.890Z,434.0
2023-11-29T20:26:25.578Z,357.0
2023-11-29T20:29:25.567Z,321.0
2023-11-29T20:32:28.368Z,319.0
2023-11-29T20:36:08.759Z,317.0
2023-11-29T20:41:35.427Z,301.0
2023-11-29T20:44:25.521Z,297.0
2023-11-29T20:47:25.939Z,314.0
2023-11-29T20:50:26.147Z,354.0
2023-11-29T20:53:36.081Z,354.0
2023-11-29T20:56:25.606Z,362.0
2023-11-29T20:59:27.055Z,377.0
2023-11-29T21:02:26.049Z,351.0
2023-11-29T21:05:26.804Z,334.0
2023-11-29T21:08:25.565Z,352.0
2023-11-29T21:11:25.768Z,272.0
2023-11-29T21:14:25.676Z,243.0
2023-11-29T21:17:26.005Z,249.0
2023-11-29T21:20:26.385Z,256.0
2023-11-29T21:23:25.780Z,294.0
2023-11-29T21:26:25.688Z,316.0
2023-11-29T21:29:25.658Z,324.0
2023-11-29T21:32:25.873Z,321.0
2023-11-29T21:35:25.936Z,317.0
2023-11-29T21:38:25.830Z,329.0
2023-11-29T21:41:25.686Z,339.0
2023-11-29T21:44:25.812Z,388.0
2023-11-29T21:47:25.970Z,465.0
2023-11-29T21:50:26.270Z,437.0
2023-11-29T21:53:27.208Z,396.0
2023-11-29T21:56:25.754Z,459.0
2023-11-29T21:59:25.748Z,458.0
2023-11-29T22:02:26.342Z,480.0
2023-11-29T22:05:26.144Z,416.0
2023-11-29T22:08:26.060Z,280.0
2023-11-29T22:11:25.818Z,200.0
2023-11-29T22:14:25.842Z,154.0
2023-11-29T22:17:26.054Z,145.0
2023-11-29T22:20:26.331Z,162.0
2023-11-29T22:23:25.710Z,181.0
2023-11-29T22:26:26.185Z,190.0
2023-11-29T22:29:26.722Z,204.0
2023-11-29T22:32:26.445Z,216.0
2023-11-29T22:35:26.062Z,234.0
2023-11-29T22:38:25.587Z,210.0
2023-11-29T22:41:25.930Z,156.0
2023-11-29T22:44:25.630Z,147.0
2023-11-29T22:47:26.313Z,172.0
2023-11-29T22:50:26.417Z,204.0
2023-11-29T22:53:29.558Z,326.0
2023-11-29T22:56:25.936Z,265.0
2023-11-29T22:59:25.686Z,164.0
2023-11-29T23:02:26.297Z,136.0
2023-11-29T23:05:29.663Z,246.0
2023-11-29T23:08:26.147Z,236.0
2023-11-29T23:11:25.800Z,147.0
2023-11-29T23:14:25.603Z,135.0
2023-11-29T23:17:26.248Z,168.0
2023-11-29T23:20:26.297Z,191.0
2023-11-29T23:23:33.779Z,195.0
2023-11-29T23:26:27.049Z,212.0
2023-11-29T23:29:25.665Z,231.0
2023-11-29T23:32:26.196Z,217.0
2023-11-29T23:35:26.058Z,185.0
2023-11-29T23:38:26.327Z,162.0
2023-11-29T23:41:25.539Z,152.0
2023-11-29T23:44:25.625Z,135.0
2023-11-29T23:47:25.656Z,110.0
2023-11-29T23:50:25.938Z,114.0
2023-11-29T23:53:25.651Z,110.0
2023-11-29T23:56:25.789Z,106.0
2023-11-29T23:59:25.578Z,103.0
